createdAt,value
2022-08-04T00:00:30.064Z,51.16
2022-08-04T00:01:45.728Z,51.13
2022-08-04T00:02:48.631Z,51.22
2022-08-04T00:04:13.205Z,51.25
2022-08-04T00:05:34.581Z,51.26
2022-08-04T00:06:46.022Z,51.18
2022-08-04T00:07:57.028Z,51.22
2022-08-04T00:09:03.157Z,51.21
2022-08-04T00:10:09.210Z,51.08
2022-08-04T00:11:15.743Z,51.16
2022-08-04T00:12:22.276Z,51.19
2022-08-04T00:13:37.723Z,51.19
2022-08-04T00:15:01.336Z,51.27
2022-08-04T00:16:08.726Z,51.33
2022-08-04T00:17:11.973Z,51.32
2022-08-04T00:18:15.379Z,51.35
2022-08-04T00:19:21.641Z,51.24
2022-08-04T00:20:24.826Z,51.22
2022-08-04T00:21:28.146Z,51.29
2022-08-04T00:22:31.765Z,51.37
2022-08-04T00:24:11.607Z,51.50
2022-08-04T00:25:02.407Z,51.47
2022-08-04T00:26:05.442Z,51.29
2022-08-04T00:27:08.766Z,51.38
2022-08-04T00:28:12.373Z,51.41
2022-08-04T00:29:15.607Z,51.49
2022-08-04T00:30:18.499Z,51.55
2022-08-04T00:31:53.698Z,51.20
2022-08-04T00:32:45.543Z,51.29
2022-08-04T00:33:48.953Z,51.33
2022-08-04T00:34:52.558Z,51.49
2022-08-04T00:35:57.068Z,51.51
2022-08-04T00:37:00.048Z,51.47
2022-08-04T00:38:03.434Z,51.36
2022-08-04T00:39:07.338Z,51.26
2022-08-04T00:40:23.907Z,51.40
2022-08-04T00:41:26.793Z,51.50
2022-08-04T00:42:58.261Z,51.51
2022-08-04T00:44:05.302Z,51.61
2022-08-04T00:45:10.971Z,51.43
2022-08-04T00:46:19.722Z,51.72
2022-08-04T00:47:34.375Z,51.64
2022-08-04T00:48:47.734Z,51.23
2022-08-04T00:49:59.739Z,51.28
2022-08-04T00:51:21.203Z,51.68
2022-08-04T00:52:32.507Z,51.78
2022-08-04T00:53:49.859Z,51.66
2022-08-04T00:55:07.084Z,51.72
2022-08-04T00:56:11.899Z,51.73
2022-08-04T00:57:34.105Z,51.68
2022-08-04T00:58:44.224Z,51.47
2022-08-04T01:00:08.942Z,51.63
2022-08-04T01:01:30.234Z,51.65
2022-08-04T01:02:37.073Z,51.33
2022-08-04T01:03:50.275Z,51.52
2022-08-04T01:05:04.423Z,51.48
2022-08-04T01:06:30.838Z,51.39
2022-08-04T01:07:39.736Z,51.44
2022-08-04T01:08:49.598Z,51.40
2022-08-04T01:10:08.970Z,51.38
2022-08-04T01:11:24.437Z,51.09
2022-08-04T01:12:39.467Z,51.05
2022-08-04T01:13:48.673Z,51.32
2022-08-04T01:14:58.018Z,51.44
2022-08-04T01:16:03.188Z,51.30
2022-08-04T01:17:15.418Z,51.04
2022-08-04T01:18:23.287Z,51.20
2022-08-04T01:19:29.237Z,51.27
2022-08-04T01:20:35.303Z,51.15
2022-08-04T01:21:43.062Z,51.24
2022-08-04T01:23:01.779Z,51.23
2022-08-04T01:24:23.109Z,51.10
2022-08-04T01:25:49.418Z,50.87
2022-08-04T01:26:57.778Z,50.99
2022-08-04T01:28:03.881Z,50.56
2022-08-04T01:29:10.976Z,50.61
2022-08-04T01:30:17.333Z,50.66
2022-08-04T01:32:57.364Z,50.30
2022-08-04T01:34:04.853Z,50.39
2022-08-04T01:35:11.098Z,50.66
2022-08-04T01:36:24.933Z,50.61
2022-08-04T01:37:46.630Z,50.50
2022-08-04T01:38:49.644Z,50.62
2022-08-04T01:40:12.831Z,50.67
2022-08-04T01:41:19.232Z,50.66
2022-08-04T01:42:36.317Z,50.79
2022-08-04T01:43:43.565Z,50.86
2022-08-04T01:44:47.982Z,50.42
2022-08-04T01:45:52.133Z,50.49
2022-08-04T01:46:55.475Z,50.65
2022-08-04T01:47:58.456Z,50.70
2022-08-04T01:49:02.936Z,50.72
2022-08-04T01:50:08.291Z,50.75
2022-08-04T01:51:11.768Z,50.76
2022-08-04T01:52:16.510Z,50.71
2022-08-04T01:53:24.526Z,50.38
2022-08-04T01:54:28.474Z,50.35
2022-08-04T01:55:55.218Z,50.53
2022-08-04T01:56:55.520Z,50.72
2022-08-04T01:58:01.040Z,50.89
2022-08-04T01:59:04.065Z,51.02
2022-08-04T02:00:07.537Z,51.16
2022-08-04T02:01:13.233Z,51.24
2022-08-04T02:02:16.424Z,51.20
2022-08-04T02:03:20.382Z,51.22
2022-08-04T02:04:23.869Z,51.15
2022-08-04T02:06:03.113Z,51.20
2022-08-04T02:07:08.690Z,51.30
2022-08-04T02:08:33.290Z,51.21
2022-08-04T02:09:55.023Z,51.23
2022-08-04T02:11:00.981Z,51.21
2022-08-04T02:12:15.851Z,51.22
2022-08-04T02:13:22.756Z,51.25
2022-08-04T02:14:40.706Z,51.18
2022-08-04T02:15:46.680Z,50.99
2022-08-04T02:16:52.530Z,51.03
2022-08-04T02:18:00.604Z,51.16
2022-08-04T02:19:03.851Z,51.33
2022-08-04T02:20:16.659Z,51.49
2022-08-04T02:21:20.509Z,51.56
2022-08-04T02:22:25.709Z,51.68
2022-08-04T02:23:31.446Z,51.75
2022-08-04T02:24:38.006Z,51.80
2022-08-04T02:25:46.012Z,51.89
2022-08-04T02:26:50.197Z,51.97
2022-08-04T02:27:59.374Z,51.98
2022-08-04T02:29:03.554Z,52.09
2022-08-04T02:30:06.900Z,51.93
2022-08-04T02:31:28.746Z,52.08
2022-08-04T02:32:39.604Z,52.30
2022-08-04T02:33:44.231Z,52.43
2022-08-04T02:34:47.834Z,52.46
2022-08-04T02:35:54.471Z,52.57
2022-08-04T02:36:59.197Z,52.54
2022-08-04T02:38:17.102Z,52.77
2022-08-04T02:39:31.547Z,52.91
2022-08-04T02:40:51.630Z,52.99
2022-08-04T02:41:55.838Z,53.18
2022-08-04T02:42:59.360Z,53.24
2022-08-04T02:44:04.194Z,53.25
2022-08-04T02:45:07.659Z,53.23
2022-08-04T02:46:18.022Z,53.29
2022-08-04T02:47:24.563Z,53.40
2022-08-04T02:48:48.107Z,53.46
2022-08-04T02:49:51.871Z,53.31
2022-08-04T02:50:55.994Z,53.27
2022-08-04T02:51:59.953Z,53.53
2022-08-04T02:53:04.314Z,53.66
2022-08-04T02:54:15.312Z,53.77
2022-08-04T02:55:33.953Z,53.89
2022-08-04T02:56:38.838Z,53.94
2022-08-04T02:57:43.562Z,54.04
2022-08-04T02:58:49.408Z,54.11
2022-08-04T02:59:52.478Z,54.23
2022-08-04T03:00:55.391Z,54.21
2022-08-04T03:01:58.524Z,54.29
2022-08-04T03:03:20.108Z,54.46
2022-08-04T03:04:24.461Z,54.48
2022-08-04T03:05:57.501Z,54.56
2022-08-04T03:07:05.931Z,54.77
2022-08-04T03:08:28.754Z,54.80
2022-08-04T03:09:38.730Z,54.90
2022-08-04T03:10:41.599Z,54.93
2022-08-04T03:11:53.703Z,55.01
2022-08-04T03:13:14.786Z,55.05
2022-08-04T03:14:32.680Z,55.13
2022-08-04T03:15:40.636Z,55.20
2022-08-04T03:16:55.763Z,55.18
2022-08-04T03:17:58.613Z,55.38
2022-08-04T03:19:20.024Z,55.44
2022-08-04T03:20:22.956Z,55.50
2022-08-04T03:21:28.758Z,55.50
2022-08-04T03:22:31.703Z,55.51
2022-08-04T03:23:53.092Z,55.53
2022-08-04T03:25:14.643Z,55.63
2022-08-04T03:26:28.571Z,55.79
2022-08-04T03:27:41.196Z,55.86
2022-08-04T03:29:05.997Z,55.88
2022-08-04T03:30:08.936Z,55.71
2022-08-04T03:31:14.879Z,55.90
2022-08-04T03:32:36.266Z,55.99
2022-08-04T03:33:57.392Z,56.08
2022-08-04T03:35:14.556Z,55.93
2022-08-04T03:36:30.118Z,56.09
2022-08-04T03:37:49.686Z,56.28
2022-08-04T03:39:09.414Z,56.26
2022-08-04T03:40:18.161Z,56.29
2022-08-04T03:41:55.025Z,56.43
2022-08-04T03:43:57.758Z,56.30
2022-08-04T03:44:52.875Z,56.65
2022-08-04T03:45:55.793Z,56.70
2022-08-04T03:47:07.419Z,56.41
2022-08-04T03:48:29.056Z,55.88
2022-08-04T03:50:10.536Z,56.30
2022-08-04T03:51:38.212Z,55.63
2022-08-04T03:53:09.590Z,55.83
2022-08-04T03:54:28.711Z,56.52
2022-08-04T03:55:40.631Z,57.16
2022-08-04T03:57:01.743Z,57.15
2022-08-04T03:58:30.400Z,56.93
2022-08-04T03:59:36.765Z,56.66
2022-08-04T04:00:45.834Z,56.96
2022-08-04T04:02:07.493Z,57.30
2022-08-04T04:03:22.885Z,57.34
2022-08-04T04:04:32.133Z,57.18
2022-08-04T04:05:40.345Z,57.26
2022-08-04T04:07:19.512Z,57.32
2022-08-04T04:08:49.684Z,57.04
2022-08-04T04:09:57.934Z,57.10
2022-08-04T04:11:08.943Z,56.19
2022-08-04T04:12:15.238Z,56.27
2022-08-04T04:13:35.909Z,55.70
2022-08-04T04:14:50.830Z,55.84
2022-08-04T04:15:56.735Z,55.05
2022-08-04T04:16:59.610Z,55.32
2022-08-04T04:18:21.237Z,55.27
2022-08-04T04:19:44.515Z,56.23
2022-08-04T04:20:53.327Z,55.74
2022-08-04T04:22:05.390Z,55.37
2022-08-04T04:23:10.382Z,55.66
2022-08-04T04:24:13.926Z,55.04
2022-08-04T04:25:28.403Z,54.93
2022-08-04T04:26:37.191Z,55.05
2022-08-04T04:27:43.596Z,55.34
2022-08-04T04:28:52.587Z,54.99
2022-08-04T04:29:55.487Z,54.96
2022-08-04T04:31:07.100Z,55.38
2022-08-04T04:32:22.304Z,56.50
2022-08-04T04:33:33.829Z,56.39
2022-08-04T04:34:46.623Z,56.75
2022-08-04T04:35:52.197Z,56.43
2022-08-04T04:37:13.843Z,56.58
2022-08-04T04:38:25.878Z,56.83
2022-08-04T04:39:35.031Z,56.65
2022-08-04T04:40:58.243Z,56.67
2022-08-04T04:42:03.843Z,56.75
2022-08-04T04:43:13.803Z,56.60
2022-08-04T04:44:30.806Z,56.93
2022-08-04T04:45:52.598Z,56.46
2022-08-04T04:47:04.715Z,56.66
2022-08-04T04:48:26.865Z,56.34
2022-08-04T04:49:50.071Z,56.63
2022-08-04T04:51:14.513Z,56.16
2022-08-04T04:52:20.625Z,54.65
2022-08-04T04:53:27.694Z,55.02
2022-08-04T04:54:35.163Z,55.51
2022-08-04T04:55:47.974Z,55.31
2022-08-04T04:56:54.208Z,55.80
2022-08-04T04:58:00.514Z,56.23
2022-08-04T04:59:04.432Z,56.46
2022-08-04T05:00:13.084Z,56.09
2022-08-04T05:01:15.990Z,56.92
2022-08-04T05:02:37.374Z,57.69
2022-08-04T05:03:59.274Z,57.08
2022-08-04T05:05:20.304Z,56.07
2022-08-04T05:06:38.267Z,56.38
2022-08-04T05:07:58.420Z,56.52
2022-08-04T05:09:01.413Z,55.42
2022-08-04T05:10:10.918Z,55.65
2022-08-04T05:11:32.714Z,54.69
2022-08-04T05:14:33.198Z,54.83
2022-08-04T05:14:41.561Z,54.34
2022-08-04T05:15:46.714Z,54.32
2022-08-04T05:16:58.444Z,54.36
2022-08-04T05:18:02.230Z,54.39
2022-08-04T05:19:11.215Z,54.47
2022-08-04T05:20:17.044Z,54.18
2022-08-04T05:21:27.266Z,54.34
2022-08-04T05:22:36.193Z,54.44
2022-08-04T05:23:43.605Z,54.29
2022-08-04T05:24:47.908Z,54.16
2022-08-04T05:25:59.556Z,54.24
2022-08-04T05:27:05.853Z,54.21
2022-08-04T05:28:11.984Z,54.16
2022-08-04T05:29:30.919Z,54.30
2022-08-04T05:30:37.022Z,53.65
2022-08-04T05:31:42.952Z,53.75
2022-08-04T05:33:00.201Z,53.23
2022-08-04T05:34:04.512Z,53.20
2022-08-04T05:35:12.390Z,53.32
2022-08-04T05:36:32.737Z,53.62
2022-08-04T05:37:41.547Z,53.59
2022-08-04T05:38:45.046Z,53.53
2022-08-04T05:39:54.079Z,52.80
2022-08-04T05:40:57.303Z,52.98
2022-08-04T05:42:04.416Z,52.85
2022-08-04T05:43:08.239Z,52.99
2022-08-04T05:44:11.947Z,53.09
2022-08-04T05:45:15.454Z,52.71
2022-08-04T05:46:19.467Z,52.89
2022-08-04T05:47:22.854Z,52.75
2022-08-04T05:48:27.602Z,52.74
2022-08-04T05:49:31.270Z,52.72
2022-08-04T05:50:34.572Z,52.85
2022-08-04T05:51:38.866Z,52.92
2022-08-04T05:52:42.330Z,52.75
2022-08-04T05:53:47.204Z,52.62
2022-08-04T05:54:51.252Z,52.66
2022-08-04T05:55:58.735Z,52.64
2022-08-04T05:57:05.856Z,52.65
2022-08-04T05:58:09.463Z,52.59
2022-08-04T05:59:12.812Z,52.40
2022-08-04T06:00:39.861Z,52.34
2022-08-04T06:01:55.066Z,52.33
2022-08-04T06:03:01.219Z,51.93
2022-08-04T06:04:11.356Z,52.03
2022-08-04T06:05:17.769Z,52.04
2022-08-04T06:06:21.592Z,52.00
2022-08-04T06:07:26.555Z,52.06
2022-08-04T06:08:30.205Z,51.99
2022-08-04T06:09:33.246Z,52.01
2022-08-04T06:10:38.806Z,51.91
2022-08-04T06:12:03.740Z,51.84
2022-08-04T06:13:07.555Z,51.85
2022-08-04T06:14:13.388Z,51.81
2022-08-04T06:15:18.520Z,51.59
2022-08-04T06:16:29.841Z,51.66
2022-08-04T06:19:56.249Z,51.71
2022-08-04T06:20:00.959Z,51.53
2022-08-04T06:20:29.884Z,51.61
2022-08-04T06:21:39.527Z,51.62
2022-08-04T06:22:43.512Z,51.58
2022-08-04T06:23:56.157Z,51.65
2022-08-04T06:25:05.606Z,51.61
2022-08-04T06:26:11.534Z,51.54
2022-08-04T06:27:15.693Z,51.36
2022-08-04T06:28:19.568Z,51.30
2022-08-04T06:29:35.791Z,51.17
2022-08-04T06:30:40.410Z,51.20
2022-08-04T06:32:29.808Z,51.21
2022-08-04T06:33:33.745Z,51.00
2022-08-04T06:34:58.840Z,50.92
2022-08-04T06:36:03.119Z,50.94
2022-08-04T06:37:06.792Z,50.89
2022-08-04T06:38:09.972Z,50.84
2022-08-04T06:39:16.085Z,50.91
2022-08-04T06:40:31.569Z,50.86
2022-08-04T06:41:36.442Z,50.84
2022-08-04T06:43:00.797Z,50.86
2022-08-04T06:44:06.011Z,50.80
2022-08-04T06:45:09.995Z,50.69
2022-08-04T06:46:14.333Z,50.68
2022-08-04T06:47:21.640Z,50.50
2022-08-04T06:48:33.312Z,50.26
2022-08-04T06:49:55.091Z,50.29
2022-08-04T06:51:32.752Z,50.43
2022-08-04T06:52:24.963Z,50.45
2022-08-04T06:53:28.711Z,50.40
2022-08-04T06:54:33.022Z,50.40
2022-08-04T06:55:36.087Z,50.31
2022-08-04T06:56:39.564Z,49.94
2022-08-04T06:57:44.057Z,49.92
2022-08-04T06:58:47.589Z,49.98
2022-08-04T07:00:01.505Z,49.89
2022-08-04T07:01:05.289Z,49.97
2022-08-04T07:02:14.158Z,49.99
2022-08-04T07:03:19.595Z,49.87
2022-08-04T07:04:22.563Z,49.92
2022-08-04T07:05:25.514Z,49.90
2022-08-04T07:06:28.445Z,49.89
2022-08-04T07:07:34.048Z,49.67
2022-08-04T07:08:40.283Z,49.61
2022-08-04T07:09:43.509Z,49.58
2022-08-04T07:10:46.690Z,49.22
2022-08-04T07:11:49.691Z,49.12
2022-08-04T07:12:54.063Z,49.17
2022-08-04T07:13:57.555Z,49.30
2022-08-04T07:15:01.283Z,49.19
2022-08-04T07:16:05.575Z,49.01
2022-08-04T07:17:09.330Z,48.97
2022-08-04T07:18:12.436Z,48.97
2022-08-04T07:19:18.858Z,48.49
2022-08-04T07:20:33.864Z,48.62
2022-08-04T07:21:39.555Z,48.55
2022-08-04T07:22:43.265Z,48.14
2022-08-04T07:23:46.315Z,47.89
2022-08-04T07:24:54.201Z,47.62
2022-08-04T07:26:11.847Z,47.67
2022-08-04T07:27:17.193Z,47.32
2022-08-04T07:28:29.868Z,47.74
2022-08-04T07:29:33.467Z,47.99
2022-08-04T07:30:37.151Z,47.92
2022-08-04T07:31:40.222Z,47.89
2022-08-04T07:32:45.213Z,48.04
2022-08-04T07:33:48.426Z,47.99
2022-08-04T07:36:05.625Z,47.73
2022-08-04T07:36:50.448Z,47.82
2022-08-04T07:37:54.013Z,48.05
2022-08-04T07:38:56.968Z,48.05
2022-08-04T07:40:01.180Z,48.00
2022-08-04T07:41:35.305Z,47.80
2022-08-04T07:42:29.221Z,47.97
2022-08-04T07:43:32.384Z,47.93
2022-08-04T07:44:35.534Z,47.90
2022-08-04T07:45:38.492Z,47.58
2022-08-04T07:46:41.884Z,47.54
2022-08-04T07:48:04.673Z,47.53
2022-08-04T07:49:08.528Z,46.88
2022-08-04T07:50:12.531Z,46.89
2022-08-04T07:51:16.381Z,46.61
2022-08-04T07:52:20.754Z,47.07
2022-08-04T07:53:52.972Z,47.02
2022-08-04T07:54:50.505Z,47.08
2022-08-04T07:55:53.663Z,46.82
2022-08-04T07:56:56.858Z,46.50
2022-08-04T07:58:00.503Z,45.56
2022-08-04T07:59:03.604Z,45.94
2022-08-04T08:00:07.967Z,45.94
2022-08-04T08:01:14.599Z,46.05
2022-08-04T08:02:19.468Z,46.46
2022-08-04T08:03:23.904Z,46.49
2022-08-04T08:04:27.258Z,46.56
2022-08-04T08:05:30.406Z,46.62
2022-08-04T08:06:39.797Z,46.35
2022-08-04T08:07:50.898Z,44.74
2022-08-04T08:08:58.422Z,44.17
2022-08-04T08:10:01.375Z,44.73
2022-08-04T08:11:04.562Z,44.82
2022-08-04T08:12:38.286Z,43.79
2022-08-04T08:13:33.279Z,44.10
2022-08-04T08:14:37.139Z,41.36
2022-08-04T08:15:40.472Z,42.42
2022-08-04T08:16:43.984Z,42.43
2022-08-04T08:17:57.895Z,42.99
2022-08-04T08:19:04.110Z,40.20
2022-08-04T08:20:09.939Z,40.62
2022-08-04T08:21:13.112Z,40.63
2022-08-04T08:22:16.117Z,40.43
2022-08-04T08:23:19.834Z,40.89
2022-08-04T08:24:24.921Z,40.62
2022-08-04T08:25:29.691Z,40.43
2022-08-04T08:26:32.812Z,41.00
2022-08-04T08:27:37.245Z,40.15
2022-08-04T08:28:41.319Z,39.62
2022-08-04T08:29:47.046Z,40.01
2022-08-04T08:30:52.660Z,39.81
2022-08-04T08:32:01.447Z,39.48
2022-08-04T08:33:06.971Z,40.10
2022-08-04T08:34:11.455Z,38.82
2022-08-04T08:35:17.738Z,38.08
2022-08-04T08:36:27.579Z,39.41
2022-08-04T08:37:33.790Z,39.51
2022-08-04T08:38:40.340Z,39.98
2022-08-04T08:39:50.129Z,39.27
2022-08-04T08:40:56.491Z,39.87
2022-08-04T08:42:11.462Z,39.38
2022-08-04T08:44:04.442Z,39.92
2022-08-04T08:45:10.923Z,38.02
2022-08-04T08:46:45.563Z,37.33
2022-08-04T08:48:05.725Z,38.01
2022-08-04T08:49:14.023Z,38.54
2022-08-04T08:50:48.792Z,37.40
2022-08-04T08:51:59.933Z,37.87
2022-08-04T08:53:22.858Z,36.57
2022-08-04T08:54:40.688Z,37.03
2022-08-04T08:55:55.661Z,37.34
2022-08-04T08:57:01.499Z,38.32
2022-08-04T08:58:16.950Z,37.49
2022-08-04T08:59:38.376Z,37.38
2022-08-04T09:00:59.321Z,37.97
2022-08-04T09:02:21.130Z,39.00
2022-08-04T09:03:24.000Z,38.24
2022-08-04T09:04:40.261Z,37.75
2022-08-04T09:05:51.096Z,37.19
2022-08-04T09:07:07.385Z,36.02
2022-08-04T09:08:22.601Z,36.39
2022-08-04T09:09:34.415Z,36.63
2022-08-04T09:10:42.304Z,36.22
2022-08-04T09:11:56.181Z,36.27
2022-08-04T09:13:01.918Z,35.59
2022-08-04T09:14:20.628Z,36.05
2022-08-04T09:15:23.599Z,36.52
2022-08-04T09:16:38.963Z,36.49
2022-08-04T09:17:45.534Z,37.11
2022-08-04T09:18:48.582Z,36.43
2022-08-04T09:19:59.059Z,35.65
2022-08-04T09:21:25.001Z,36.44
2022-08-04T09:22:34.891Z,36.51
2022-08-04T09:23:43.703Z,36.84
2022-08-04T09:24:46.778Z,36.36
2022-08-04T09:26:25.270Z,35.77
2022-08-04T09:27:35.627Z,35.73
2022-08-04T09:28:54.098Z,37.28
2022-08-04T09:30:08.278Z,35.77
2022-08-04T09:31:14.645Z,34.95
2022-08-04T09:32:25.521Z,36.74
2022-08-04T09:33:44.584Z,36.98
2022-08-04T09:35:12.001Z,36.24
2022-08-04T09:36:26.768Z,35.81
2022-08-04T09:37:45.748Z,35.04
2022-08-04T09:38:58.578Z,34.77
2022-08-04T09:40:01.856Z,35.78
2022-08-04T09:41:26.221Z,35.29
2022-08-04T09:42:51.356Z,34.68
2022-08-04T09:44:48.869Z,34.65
2022-08-04T09:45:43.185Z,35.29
2022-08-04T09:46:52.578Z,34.17
2022-08-04T09:48:25.585Z,33.68
2022-08-04T09:49:54.506Z,33.70
2022-08-04T09:50:59.306Z,33.99
2022-08-04T09:52:11.773Z,34.24
2022-08-04T09:53:27.958Z,34.60
2022-08-04T09:54:42.810Z,35.39
2022-08-04T09:55:54.610Z,34.39
2022-08-04T09:57:16.859Z,35.12
2022-08-04T09:58:27.209Z,35.21
2022-08-04T09:59:36.187Z,36.01
2022-08-04T10:00:47.031Z,36.07
2022-08-04T10:01:58.899Z,34.21
2022-08-04T10:03:04.567Z,34.51
2022-08-04T10:04:12.529Z,34.79
2022-08-04T10:05:17.163Z,35.13
2022-08-04T10:06:34.165Z,34.92
2022-08-04T10:08:13.634Z,33.33
2022-08-04T10:09:50.354Z,34.03
2022-08-04T10:11:11.455Z,34.55
2022-08-04T10:12:23.595Z,34.04
2022-08-04T10:13:53.036Z,34.24
2022-08-04T10:15:05.190Z,32.94
2022-08-04T10:16:10.895Z,33.51
2022-08-04T10:17:26.373Z,33.95
2022-08-04T10:18:48.391Z,34.35
2022-08-04T10:19:57.383Z,34.89
2022-08-04T10:21:13.481Z,34.89
2022-08-04T10:22:50.009Z,34.78
2022-08-04T10:24:07.654Z,33.64
2022-08-04T10:25:37.652Z,32.88
2022-08-04T10:26:58.573Z,32.39
2022-08-04T10:28:05.379Z,32.66
2022-08-04T10:29:14.518Z,33.69
2022-08-04T10:30:19.120Z,34.12
2022-08-04T10:31:28.962Z,34.10
2022-08-04T10:32:43.080Z,34.27
2022-08-04T10:33:58.328Z,34.14
2022-08-04T10:35:20.194Z,32.28
2022-08-04T10:36:27.696Z,32.64
2022-08-04T10:37:54.628Z,32.12
2022-08-04T10:39:43.749Z,32.16
2022-08-04T10:40:47.942Z,32.33
2022-08-04T10:42:06.243Z,32.46
2022-08-04T10:43:22.394Z,31.73
2022-08-04T10:44:42.322Z,31.85
2022-08-04T10:45:57.757Z,31.89
2022-08-04T10:47:04.055Z,31.87
2022-08-04T10:48:07.107Z,32.93
2022-08-04T10:49:16.829Z,33.04
2022-08-04T10:50:26.639Z,31.33
2022-08-04T10:51:58.876Z,32.44
2022-08-04T10:53:07.816Z,32.23
2022-08-04T10:54:15.335Z,33.13
2022-08-04T10:55:20.100Z,32.36
2022-08-04T10:56:30.175Z,30.89
2022-08-04T10:57:36.166Z,30.88
2022-08-04T10:59:05.224Z,30.34
2022-08-04T11:00:19.837Z,30.87
2022-08-04T11:02:01.954Z,30.60
2022-08-04T11:03:09.299Z,30.48
2022-08-04T11:04:27.179Z,31.48
2022-08-04T11:05:46.807Z,32.33
2022-08-04T11:06:49.994Z,32.18
2022-08-04T11:08:11.439Z,31.93
2022-08-04T11:09:17.377Z,31.64
2022-08-04T11:10:21.873Z,32.05
2022-08-04T11:11:56.979Z,31.55
2022-08-04T11:12:58.281Z,31.73
2022-08-04T11:14:09.094Z,30.30
2022-08-04T11:15:14.290Z,29.65
2022-08-04T11:16:19.566Z,28.97
2022-08-04T11:17:33.671Z,28.80
2022-08-04T11:18:55.622Z,29.45
2022-08-04T11:20:18.190Z,30.25
2022-08-04T11:21:25.227Z,29.87
2022-08-04T11:22:28.920Z,30.05
2022-08-04T11:23:36.833Z,29.48
2022-08-04T11:24:52.739Z,29.79
2022-08-04T11:26:08.028Z,29.59
2022-08-04T11:27:23.791Z,29.48
2022-08-04T11:28:30.680Z,28.82
2022-08-04T11:30:14.049Z,28.68
2022-08-04T11:31:20.393Z,30.04
2022-08-04T11:32:35.991Z,29.72
2022-08-04T11:34:11.177Z,28.80
2022-08-04T11:35:20.199Z,28.98
2022-08-04T11:36:32.153Z,29.87
2022-08-04T11:37:50.542Z,28.89
2022-08-04T11:38:59.319Z,30.04
2022-08-04T11:40:23.137Z,29.63
2022-08-04T11:41:47.103Z,27.81
2022-08-04T11:42:56.784Z,28.62
2022-08-04T11:44:05.628Z,29.22
2022-08-04T11:45:13.492Z,29.52
2022-08-04T11:46:23.274Z,28.84
2022-08-04T11:47:30.807Z,29.17
2022-08-04T11:48:40.771Z,29.25
2022-08-04T11:49:56.958Z,28.92
2022-08-04T11:51:06.809Z,28.94
2022-08-04T11:52:12.675Z,29.11
2022-08-04T11:53:22.978Z,28.81
2022-08-04T11:54:26.076Z,28.72
2022-08-04T11:55:30.487Z,27.63
2022-08-04T11:56:37.143Z,28.64
2022-08-04T11:57:41.242Z,28.50
2022-08-04T11:58:50.465Z,28.51
2022-08-04T11:59:56.452Z,27.90
2022-08-04T12:01:10.720Z,27.54
2022-08-04T12:02:39.973Z,27.27
2022-08-04T12:03:46.560Z,25.67
2022-08-04T12:05:08.258Z,25.87
2022-08-04T12:06:17.970Z,26.73
2022-08-04T12:07:30.994Z,26.97
2022-08-04T12:08:53.123Z,26.59
2022-08-04T12:10:04.272Z,26.20
2022-08-04T12:11:25.089Z,26.98
2022-08-04T12:12:50.790Z,26.03
2022-08-04T12:13:57.432Z,25.71
2022-08-04T12:15:05.915Z,24.89
2022-08-04T12:16:14.778Z,24.13
2022-08-04T12:17:36.381Z,25.03
2022-08-04T12:19:01.583Z,24.74
2022-08-04T12:20:31.639Z,23.93
2022-08-04T12:21:45.030Z,24.19
2022-08-04T12:22:58.828Z,26.40
2022-08-04T12:24:05.744Z,24.22
2022-08-04T12:25:09.702Z,24.44
2022-08-04T12:26:20.942Z,23.79
2022-08-04T12:27:33.679Z,24.25
2022-08-04T12:29:08.676Z,25.77
2022-08-04T12:31:01.712Z,24.25
2022-08-04T12:31:29.735Z,23.90
2022-08-04T12:32:37.817Z,25.37
2022-08-04T12:34:04.220Z,25.71
2022-08-04T12:35:18.821Z,24.41
2022-08-04T12:36:38.089Z,22.72
2022-08-04T12:37:50.826Z,24.66
2022-08-04T12:39:03.392Z,24.78
2022-08-04T12:40:28.198Z,23.37
2022-08-04T12:41:36.546Z,23.78
2022-08-04T12:42:39.438Z,24.24
2022-08-04T12:44:05.535Z,21.22
2022-08-04T12:45:10.239Z,21.52
2022-08-04T12:46:22.319Z,22.14
2022-08-04T12:47:29.063Z,21.75
2022-08-04T12:48:33.489Z,21.49
2022-08-04T12:49:39.746Z,22.80
2022-08-04T12:50:47.141Z,23.86
2022-08-04T12:52:06.139Z,23.95
2022-08-04T12:53:31.315Z,23.60
2022-08-04T12:54:36.956Z,22.51
2022-08-04T12:55:45.163Z,21.67
2022-08-04T12:57:07.636Z,20.79
2022-08-04T12:58:13.299Z,21.56
2022-08-04T12:59:20.397Z,19.43
2022-08-04T13:00:29.785Z,22.05
2022-08-04T13:02:09.937Z,21.53
2022-08-04T13:03:00.734Z,18.49
2022-08-04T13:04:16.944Z,17.66
2022-08-04T13:05:21.158Z,18.44
2022-08-04T13:06:28.726Z,17.46
2022-08-04T13:07:44.085Z,17.59
2022-08-04T13:08:47.885Z,18.71
2022-08-04T13:09:51.844Z,19.86
2022-08-04T13:10:57.754Z,18.07
2022-08-04T13:12:03.153Z,19.21
2022-08-04T13:13:12.303Z,19.30
2022-08-04T13:14:26.567Z,18.46
2022-08-04T13:15:31.159Z,19.15
2022-08-04T13:16:34.361Z,17.78
2022-08-04T13:18:03.517Z,18.65
2022-08-04T13:19:08.787Z,19.42
2022-08-04T13:20:14.001Z,18.34
2022-08-04T13:21:23.255Z,20.79
2022-08-04T13:24:22.018Z,18.79
2022-08-04T13:26:44.109Z,17.76
2022-08-04T13:27:04.185Z,19.47
2022-08-04T13:28:12.878Z,18.15
2022-08-04T13:29:17.506Z,19.20
2022-08-04T13:30:22.812Z,18.67
2022-08-04T13:30:24.153Z,18.36
2022-08-04T13:31:27.523Z,18.84
2022-08-04T13:32:39.298Z,17.81
2022-08-04T13:33:44.843Z,17.02
2022-08-04T13:34:52.309Z,17.48
2022-08-04T13:35:57.043Z,17.32
2022-08-04T13:37:01.673Z,17.28
2022-08-04T13:38:08.768Z,17.65
2022-08-04T13:39:19.971Z,17.06
2022-08-04T13:40:24.557Z,18.24
2022-08-04T13:41:34.824Z,18.64
2022-08-04T13:42:38.718Z,18.89
2022-08-04T13:44:16.295Z,18.69
2022-08-04T13:45:07.887Z,16.72
2022-08-04T13:46:14.368Z,17.49
2022-08-04T13:47:34.227Z,16.97
2022-08-04T13:48:38.226Z,18.92
2022-08-04T13:49:54.632Z,18.30
2022-08-04T13:51:08.219Z,16.60
2022-08-04T13:52:11.947Z,17.28
2022-08-04T13:53:17.774Z,17.05
2022-08-04T13:54:25.061Z,16.72
2022-08-04T13:55:31.962Z,16.45
2022-08-04T13:56:44.941Z,16.75
2022-08-04T13:57:59.694Z,16.64
2022-08-04T13:59:04.211Z,16.86
2022-08-04T14:00:09.258Z,18.15
2022-08-04T14:01:35.827Z,17.22
2022-08-04T14:02:58.971Z,18.04
2022-08-04T14:04:12.510Z,17.28
2022-08-04T14:05:29.473Z,17.92
2022-08-04T14:06:37.459Z,17.34
2022-08-04T14:07:43.442Z,18.57
2022-08-04T14:08:50.686Z,18.15
2022-08-04T14:10:02.525Z,17.42
2022-08-04T14:11:06.207Z,17.31
2022-08-04T14:12:37.854Z,17.50
2022-08-04T14:13:41.357Z,15.89
2022-08-04T14:14:46.927Z,15.62
2022-08-04T14:16:01.098Z,15.84
2022-08-04T14:17:19.722Z,15.84
2022-08-04T14:18:28.090Z,16.96
2022-08-04T14:19:49.014Z,17.09
2022-08-04T14:21:06.288Z,18.33
2022-08-04T14:22:09.484Z,18.45
2022-08-04T14:23:18.079Z,18.54
2022-08-04T14:24:25.358Z,18.33
2022-08-04T14:25:35.704Z,18.63
2022-08-04T14:26:39.229Z,19.06
2022-08-04T14:27:45.349Z,18.94
2022-08-04T14:29:08.421Z,18.80
2022-08-04T14:30:21.662Z,17.42
2022-08-04T14:31:30.372Z,17.92
2022-08-04T14:32:34.098Z,17.26
2022-08-04T14:34:01.142Z,16.88
2022-08-04T14:35:10.331Z,17.80
2022-08-04T14:36:15.753Z,17.63
2022-08-04T14:37:20.586Z,17.86
2022-08-04T14:38:24.239Z,18.24
2022-08-04T14:39:37.263Z,18.27
2022-08-04T14:40:42.113Z,18.38
2022-08-04T14:41:46.467Z,18.38
2022-08-04T14:42:55.212Z,18.91
2022-08-04T14:44:00.849Z,18.91
2022-08-04T14:45:06.164Z,18.97
2022-08-04T14:46:10.507Z,18.76
2022-08-04T14:47:13.626Z,18.68
2022-08-04T14:48:19.666Z,18.80
2022-08-04T14:49:23.018Z,18.99
2022-08-04T14:50:35.024Z,18.96
2022-08-04T14:51:40.452Z,19.17
2022-08-04T14:52:43.366Z,18.11
2022-08-04T14:53:47.470Z,18.10
2022-08-04T14:54:50.692Z,19.52
2022-08-04T14:55:56.417Z,19.26
2022-08-04T14:57:04.303Z,18.91
2022-08-04T14:58:35.265Z,19.22
2022-08-04T15:00:00.546Z,18.99
2022-08-04T15:01:09.817Z,19.34
2022-08-04T15:02:15.093Z,18.05
2022-08-04T15:03:19.397Z,18.97
2022-08-04T15:04:23.724Z,19.13
2022-08-04T15:05:55.577Z,19.39
2022-08-04T15:06:53.047Z,19.24
2022-08-04T15:07:56.357Z,18.21
2022-08-04T15:09:01.702Z,19.13
2022-08-04T15:10:04.955Z,18.60
2022-08-04T15:11:08.198Z,18.57
2022-08-04T15:12:11.233Z,18.78
2022-08-04T15:13:14.519Z,18.94
2022-08-04T15:14:37.360Z,18.78
2022-08-04T15:15:41.464Z,19.10
2022-08-04T15:16:54.103Z,18.84
2022-08-04T15:17:58.403Z,19.01
2022-08-04T15:19:02.044Z,18.84
2022-08-04T15:20:05.236Z,18.20